createdAt,value
2019-03-12T00:00:23.005Z,61.04
2019-03-12T00:02:54.076Z,60.87
2019-03-12T00:05:25.206Z,60.90
2019-03-12T00:07:56.470Z,61.57
2019-03-12T00:10:27.694Z,61.79
2019-03-12T00:12:58.915Z,61.67
2019-03-12T00:15:30.321Z,61.78
2019-03-12T00:18:01.659Z,61.85
2019-03-12T00:20:32.969Z,61.85
2019-03-12T00:23:04.237Z,61.50
2019-03-12T00:25:35.431Z,61.65
2019-03-12T00:28:06.647Z,62.03
2019-03-12T00:30:37.996Z,60.88
2019-03-12T00:33:09.364Z,61.36
2019-03-12T00:35:40.545Z,61.06
2019-03-12T00:38:11.696Z,61.41
2019-03-12T00:40:42.815Z,61.12
2019-03-12T00:43:14.121Z,60.97
2019-03-12T00:45:45.455Z,60.41
2019-03-12T00:48:16.816Z,60.52
2019-03-12T00:50:48.203Z,59.94
2019-03-12T00:53:19.501Z,60.06
2019-03-12T00:55:50.913Z,59.58
2019-03-12T00:58:22.307Z,58.50
2019-03-12T01:00:53.541Z,58.53
2019-03-12T01:03:24.800Z,57.92
2019-03-12T01:05:56.141Z,58.89
2019-03-12T01:08:27.473Z,57.94
2019-03-12T01:10:58.678Z,57.57
2019-03-12T01:13:29.989Z,58.25
2019-03-12T01:16:01.293Z,57.83
2019-03-12T01:18:32.479Z,57.23
2019-03-12T01:21:03.710Z,57.87
2019-03-12T01:23:34.918Z,57.06
2019-03-12T01:26:06.056Z,57.13
2019-03-12T01:28:37.337Z,57.08
2019-03-12T01:31:08.547Z,56.88
2019-03-12T01:33:39.681Z,56.84
2019-03-12T01:36:10.925Z,56.95
2019-03-12T01:38:42.178Z,57.17
2019-03-12T01:41:13.371Z,56.79
2019-03-12T01:43:44.591Z,57.25
2019-03-12T01:46:15.885Z,56.84
2019-03-12T01:48:47.086Z,57.32
2019-03-12T01:51:18.489Z,57.26
2019-03-12T01:53:49.680Z,56.95
2019-03-12T01:56:20.960Z,56.68
2019-03-12T01:58:52.228Z,56.79
2019-03-12T02:01:23.484Z,57.42
2019-03-12T02:03:54.704Z,57.36
2019-03-12T02:06:26.018Z,57.40
2019-03-12T02:08:57.235Z,57.56
2019-03-12T02:11:28.522Z,57.37
2019-03-12T02:13:59.791Z,57.24
2019-03-12T02:16:30.927Z,57.38
2019-03-12T02:19:02.158Z,57.58
2019-03-12T02:21:33.347Z,57.34
2019-03-12T02:24:05.497Z,57.81
2019-03-12T02:26:36.799Z,57.84
2019-03-12T02:29:08.439Z,57.48
2019-03-12T02:31:39.577Z,57.80
2019-03-12T02:34:10.766Z,57.56
2019-03-12T02:36:42.116Z,57.30
2019-03-12T02:39:13.367Z,57.54
2019-03-12T02:41:44.572Z,57.62
2019-03-12T02:44:15.918Z,57.36
2019-03-12T02:46:47.094Z,56.77
2019-03-12T02:49:18.449Z,56.92
2019-03-12T02:51:49.714Z,56.96
2019-03-12T02:54:20.900Z,57.51
2019-03-12T02:56:52.020Z,57.12
2019-03-12T02:59:23.279Z,57.61
2019-03-12T03:01:55.169Z,57.29
2019-03-12T03:04:26.523Z,57.29
2019-03-12T03:07:02.581Z,57.42
2019-03-12T03:09:33.843Z,57.26
2019-03-12T03:12:05.105Z,57.73
2019-03-12T03:14:37.671Z,56.68
2019-03-12T03:17:10.285Z,57.52
2019-03-12T03:19:41.480Z,57.37
2019-03-12T03:22:12.695Z,57.48
2019-03-12T03:24:43.909Z,57.62
2019-03-12T03:27:15.072Z,57.86
2019-03-12T03:29:46.193Z,57.32
2019-03-12T03:32:17.353Z,57.88
2019-03-12T03:34:48.418Z,57.84
2019-03-12T03:37:19.777Z,57.63
2019-03-12T03:39:51.451Z,57.67
2019-03-12T03:42:22.679Z,57.53
2019-03-12T03:44:53.913Z,58.23
2019-03-12T03:47:25.079Z,58.32
2019-03-12T03:49:56.321Z,56.98
2019-03-12T03:52:27.675Z,57.41
2019-03-12T03:54:58.825Z,58.27
2019-03-12T03:57:30.141Z,59.23
2019-03-12T04:00:02.003Z,58.75
2019-03-12T04:02:35.557Z,58.68
2019-03-12T04:05:07.522Z,58.96
2019-03-12T04:07:38.930Z,59.70
2019-03-12T04:10:11.711Z,59.63
2019-03-12T04:12:42.960Z,59.38
2019-03-12T04:15:15.919Z,59.63
2019-03-12T04:17:47.314Z,59.79
2019-03-12T04:20:18.858Z,59.73
2019-03-12T04:22:50.082Z,59.68
2019-03-12T04:25:26.403Z,59.79
2019-03-12T04:27:57.717Z,59.87
2019-03-12T04:30:29.009Z,59.87
2019-03-12T04:33:01.217Z,59.75
2019-03-12T04:35:34.165Z,59.37
2019-03-12T04:38:07.024Z,58.94
2019-03-12T04:40:38.225Z,59.47
2019-03-12T04:43:09.489Z,59.87
2019-03-12T04:45:40.799Z,60.08
2019-03-12T04:48:12.106Z,59.96
2019-03-12T04:50:43.493Z,59.29
2019-03-12T04:53:14.717Z,58.81
2019-03-12T04:55:45.995Z,59.18
2019-03-12T04:58:17.439Z,58.58
2019-03-12T05:00:48.673Z,58.71
2019-03-12T05:03:20.160Z,58.47
2019-03-12T05:05:51.911Z,59.02
2019-03-12T05:08:23.237Z,59.02
2019-03-12T05:10:54.588Z,60.07
2019-03-12T05:13:25.882Z,60.94
2019-03-12T05:15:56.997Z,61.59
2019-03-12T05:18:28.327Z,61.56
2019-03-12T05:20:59.760Z,61.86
2019-03-12T05:23:30.930Z,61.78
2019-03-12T05:26:02.267Z,62.05
2019-03-12T05:28:33.518Z,62.12
2019-03-12T05:31:04.812Z,60.83
2019-03-12T05:33:36.037Z,62.04
2019-03-12T05:36:07.195Z,61.84
2019-03-12T05:38:38.404Z,61.62
2019-03-12T05:41:12.184Z,61.80
2019-03-12T05:43:42.630Z,62.11
2019-03-12T05:46:15.372Z,61.63
2019-03-12T05:48:46.760Z,61.61
2019-03-12T05:51:18.020Z,61.83
2019-03-12T05:53:51.080Z,61.46
2019-03-12T05:56:22.389Z,61.43
2019-03-12T05:58:53.689Z,61.44
2019-03-12T06:01:24.894Z,61.42
2019-03-12T06:03:56.168Z,60.97
2019-03-12T06:06:27.437Z,61.39
2019-03-12T06:08:58.765Z,61.51
2019-03-12T06:11:31.516Z,60.27
2019-03-12T06:14:02.734Z,61.37
2019-03-12T06:16:33.978Z,60.59
2019-03-12T06:19:05.526Z,60.79
2019-03-12T06:21:36.779Z,60.79
2019-03-12T06:24:07.977Z,60.39
2019-03-12T06:26:39.328Z,60.52
2019-03-12T06:29:10.676Z,60.73
2019-03-12T06:31:46.584Z,60.25
2019-03-12T06:34:19.466Z,60.34
2019-03-12T06:36:52.346Z,59.90
2019-03-12T06:39:42.955Z,59.73
2019-03-12T06:42:20.619Z,59.54
2019-03-12T06:44:53.620Z,59.12
2019-03-12T06:47:26.524Z,58.91
2019-03-12T06:50:05.043Z,58.61
2019-03-12T06:52:43.690Z,57.99
2019-03-12T06:55:16.496Z,57.84
2019-03-12T06:58:02.351Z,57.01
2019-03-12T07:00:40.895Z,56.83
2019-03-12T07:03:16.375Z,56.57
2019-03-12T07:05:55.126Z,56.08
2019-03-12T07:08:36.506Z,56.22
2019-03-12T07:11:25.437Z,55.46
2019-03-12T07:14:00.905Z,54.34
2019-03-12T07:16:33.780Z,54.11
2019-03-12T07:19:12.593Z,53.83
2019-03-12T07:21:45.397Z,53.24
2019-03-12T07:24:18.459Z,52.67
2019-03-12T07:27:03.780Z,53.00
2019-03-12T07:29:42.510Z,53.48
2019-03-12T07:32:18.123Z,52.88
2019-03-12T07:34:50.985Z,51.07
2019-03-12T07:37:26.481Z,52.48
2019-03-12T07:39:59.294Z,51.93
2019-03-12T07:42:35.310Z,51.19
2019-03-12T07:45:10.771Z,51.01
2019-03-12T07:47:46.358Z,50.79
2019-03-12T07:50:32.200Z,49.55
2019-03-12T07:53:19.990Z,49.56
2019-03-12T07:56:10.729Z,49.77
2019-03-12T07:58:49.493Z,49.67
2019-03-12T08:01:24.925Z,48.43
2019-03-12T08:03:59.609Z,46.70
2019-03-12T08:06:50.439Z,45.34
2019-03-12T08:09:25.825Z,44.15
2019-03-12T08:12:04.448Z,45.17
2019-03-12T08:14:37.154Z,45.63
2019-03-12T08:17:13.081Z,43.73
2019-03-12T08:20:02.068Z,43.60
2019-03-12T08:22:35.018Z,43.43
2019-03-12T08:25:09.734Z,42.32
2019-03-12T08:27:54.456Z,43.64
2019-03-12T08:30:33.311Z,43.01
2019-03-12T08:33:09.082Z,41.55
2019-03-12T08:35:44.740Z,41.69
2019-03-12T08:38:17.552Z,40.24
2019-03-12T08:41:06.562Z,42.10
2019-03-12T08:43:42.197Z,40.83
2019-03-12T08:46:18.392Z,40.24
2019-03-12T08:48:53.216Z,41.09
2019-03-12T08:51:29.032Z,40.56
2019-03-12T08:54:04.849Z,39.96
2019-03-12T08:56:40.624Z,40.10
2019-03-12T08:59:25.790Z,40.51
2019-03-12T09:02:02.390Z,40.19
2019-03-12T09:04:50.659Z,39.76
2019-03-12T09:07:32.566Z,39.08
2019-03-12T09:10:08.758Z,39.68
2019-03-12T09:12:47.730Z,38.93
2019-03-12T09:15:32.507Z,39.06
2019-03-12T09:18:05.258Z,40.09
2019-03-12T09:20:54.314Z,39.74
2019-03-12T09:23:36.347Z,39.00
2019-03-12T09:26:20.687Z,38.58
2019-03-12T09:29:05.497Z,37.21
2019-03-12T09:31:44.391Z,37.81
2019-03-12T09:34:23.233Z,37.35
2019-03-12T09:37:11.339Z,38.88
2019-03-12T09:39:44.228Z,38.19
2019-03-12T09:42:28.968Z,37.74
2019-03-12T09:45:07.659Z,37.21
2019-03-12T09:47:40.601Z,36.77
2019-03-12T09:50:19.305Z,38.06
2019-03-12T09:53:01.575Z,38.07
2019-03-12T09:55:40.546Z,38.21
2019-03-12T09:58:19.410Z,36.38
2019-03-12T10:00:55.311Z,36.17
2019-03-12T10:03:31.122Z,33.69
2019-03-12T10:06:19.113Z,35.84
2019-03-12T10:08:54.935Z,36.50
2019-03-12T10:11:40.095Z,36.35
2019-03-12T10:14:28.972Z,35.12
2019-03-12T10:17:18.255Z,37.02
2019-03-12T10:19:51.169Z,34.66
2019-03-12T10:22:29.838Z,36.83
2019-03-12T10:25:17.937Z,37.01
2019-03-12T10:27:57.059Z,37.12
2019-03-12T10:30:32.824Z,38.87
2019-03-12T10:33:08.507Z,37.73
2019-03-12T10:35:44.328Z,37.47
2019-03-12T10:39:07.050Z,36.06
2019-03-12T10:41:49.500Z,35.98
2019-03-12T10:44:21.964Z,33.89
2019-03-12T10:47:00.438Z,33.12
2019-03-12T10:49:37.538Z,34.51
2019-03-12T10:52:04.667Z,35.29
2019-03-12T10:54:36.126Z,34.11
2019-03-12T10:57:07.208Z,34.02
2019-03-12T10:59:38.841Z,32.67
2019-03-12T11:02:10.177Z,33.47
2019-03-12T11:04:42.485Z,33.80
2019-03-12T11:07:16.667Z,32.91
2019-03-12T11:09:46.625Z,32.85
2019-03-12T11:12:17.907Z,31.78
2019-03-12T11:14:49.076Z,32.54
2019-03-12T11:17:20.285Z,32.66
2019-03-12T11:19:51.474Z,32.52
2019-03-12T11:22:22.787Z,32.80
2019-03-12T11:24:55.256Z,33.76
2019-03-12T11:27:26.387Z,33.53
2019-03-12T11:29:57.806Z,32.55
2019-03-12T11:32:28.994Z,32.86
2019-03-12T11:35:00.406Z,33.49
2019-03-12T11:37:31.681Z,32.14
2019-03-12T11:40:03.184Z,32.63
2019-03-12T11:42:35.678Z,33.18
2019-03-12T11:45:16.129Z,33.10
2019-03-12T11:47:44.960Z,33.38
2019-03-12T11:50:23.577Z,33.24
2019-03-12T11:52:58.378Z,33.42
2019-03-12T11:55:27.901Z,32.08
2019-03-12T11:57:59.522Z,32.90
2019-03-12T12:00:35.549Z,32.85
2019-03-12T12:03:06.938Z,32.53
2019-03-12T12:05:38.209Z,32.29
2019-03-12T12:08:09.470Z,32.13
2019-03-12T12:10:40.651Z,30.62
2019-03-12T12:13:11.808Z,31.98
2019-03-12T12:15:43.179Z,32.10
2019-03-12T12:18:14.472Z,31.50
2019-03-12T12:20:45.616Z,32.00
2019-03-12T12:23:16.894Z,32.42
2019-03-12T12:25:48.186Z,33.43
2019-03-12T12:28:19.236Z,34.42
2019-03-12T12:30:50.352Z,33.95
2019-03-12T12:33:21.620Z,34.58
2019-03-12T12:35:52.958Z,33.67
2019-03-12T12:38:24.272Z,33.78
2019-03-12T12:40:55.708Z,34.11
2019-03-12T12:43:26.980Z,34.68
2019-03-12T12:45:58.342Z,34.85
2019-03-12T12:48:29.722Z,35.25
2019-03-12T12:51:03.470Z,34.98
2019-03-12T12:53:34.161Z,34.20
2019-03-12T12:56:05.445Z,33.84
2019-03-12T12:58:36.612Z,33.63
2019-03-12T13:01:07.882Z,34.31
2019-03-12T13:03:39.181Z,35.57
2019-03-12T13:06:10.336Z,36.00
2019-03-12T13:08:41.617Z,35.10
2019-03-12T13:11:12.760Z,35.65
2019-03-12T13:13:43.978Z,36.06
2019-03-12T13:16:24.351Z,36.68
2019-03-12T13:18:48.411Z,37.04
2019-03-12T13:21:20.763Z,36.42
2019-03-12T13:23:52.033Z,37.06
2019-03-12T13:26:23.172Z,36.89
2019-03-12T13:28:54.316Z,36.82
2019-03-12T13:31:25.480Z,36.98
2019-03-12T13:33:56.709Z,36.89
2019-03-12T13:36:27.791Z,37.09
2019-03-12T13:38:59.061Z,36.72
2019-03-12T13:41:30.535Z,36.96
2019-03-12T13:44:01.848Z,36.18
2019-03-12T13:46:33.131Z,36.82
2019-03-12T13:49:04.290Z,36.12
2019-03-12T13:51:35.752Z,36.51
2019-03-12T13:54:09.741Z,36.30
2019-03-12T13:56:41.077Z,36.64
2019-03-12T13:59:12.281Z,36.34
2019-03-12T14:01:43.599Z,36.69
2019-03-12T14:04:14.858Z,36.60
2019-03-12T14:06:46.144Z,36.75
2019-03-12T14:09:17.299Z,36.86
2019-03-12T14:11:48.700Z,37.04
2019-03-12T14:14:20.009Z,37.44
2019-03-12T14:16:51.200Z,38.00
2019-03-12T14:19:23.415Z,37.79
2019-03-12T14:21:54.769Z,37.66
2019-03-12T14:24:26.126Z,37.31
2019-03-12T14:26:58.583Z,37.11
2019-03-12T14:29:29.978Z,37.33
2019-03-12T14:32:01.204Z,36.77
2019-03-12T14:34:33.623Z,36.77
2019-03-12T14:37:04.798Z,37.64
2019-03-12T14:39:36.083Z,37.49
2019-03-12T14:42:07.460Z,37.68
2019-03-12T14:44:38.710Z,37.83
2019-03-12T14:47:10.079Z,37.92
2019-03-12T14:49:41.445Z,38.40
2019-03-12T14:52:12.962Z,38.13
2019-03-12T14:54:44.257Z,38.55
2019-03-12T14:57:18.199Z,38.21
2019-03-12T14:59:49.596Z,38.85
2019-03-12T15:02:20.872Z,38.55
2019-03-12T15:04:52.401Z,38.53
2019-03-12T15:07:23.668Z,38.48
2019-03-12T15:09:54.971Z,39.56
2019-03-12T15:12:26.304Z,39.53
2019-03-12T15:14:57.780Z,39.20
2019-03-12T15:17:28.969Z,39.54
2019-03-12T15:20:00.379Z,39.75
2019-03-12T15:22:31.612Z,39.15
2019-03-12T15:25:02.970Z,39.77
2019-03-12T15:27:34.096Z,40.47
2019-03-12T15:30:11.602Z,40.04
2019-03-12T15:32:42.869Z,40.94
2019-03-12T15:35:14.067Z,40.94
2019-03-12T15:37:45.431Z,40.88
2019-03-12T15:40:16.654Z,41.23
2019-03-12T15:42:47.879Z,41.66
2019-03-12T15:45:19.024Z,41.14
2019-03-12T15:47:50.446Z,41.48
2019-03-12T15:50:21.527Z,41.75
2019-03-12T15:52:52.771Z,41.40
2019-03-12T15:55:23.960Z,40.87
2019-03-12T15:57:55.296Z,41.52
2019-03-12T16:00:26.558Z,41.92
2019-03-12T16:02:57.777Z,41.99
2019-03-12T16:05:29.227Z,41.85
2019-03-12T16:08:00.561Z,42.00
2019-03-12T16:10:31.874Z,41.90
2019-03-12T16:13:03.188Z,42.01
2019-03-12T16:15:37.538Z,41.93
2019-03-12T16:18:07.920Z,42.38
2019-03-12T16:20:39.393Z,42.83
2019-03-12T16:23:10.675Z,43.07
2019-03-12T16:25:43.559Z,43.46
2019-03-12T16:28:16.461Z,43.33
2019-03-12T16:30:47.841Z,43.01
2019-03-12T16:33:19.249Z,42.71
2019-03-12T16:35:50.614Z,43.32
2019-03-12T16:38:22.005Z,42.86
2019-03-12T16:40:53.171Z,43.82
2019-03-12T16:43:24.680Z,43.93
2019-03-12T16:45:55.961Z,43.69
2019-03-12T16:48:27.426Z,44.10
2019-03-12T16:50:58.731Z,43.64
2019-03-12T16:53:30.127Z,44.84
2019-03-12T16:56:01.543Z,44.40
2019-03-12T16:58:32.954Z,44.65
2019-03-12T17:01:04.254Z,44.51
2019-03-12T17:03:35.585Z,45.01
2019-03-12T17:06:06.985Z,45.21
2019-03-12T17:08:38.278Z,44.81
2019-03-12T17:11:10.812Z,45.47
2019-03-12T17:13:42.200Z,45.34
2019-03-12T17:16:13.547Z,45.48
2019-03-12T17:18:44.904Z,45.81
2019-03-12T17:21:16.308Z,45.65
2019-03-12T17:23:47.734Z,45.38
2019-03-12T17:26:18.924Z,45.79
2019-03-12T17:28:50.283Z,45.78
2019-03-12T17:31:21.484Z,46.16
2019-03-12T17:33:52.932Z,46.27
2019-03-12T17:36:24.294Z,46.26
2019-03-12T17:38:55.702Z,46.84
2019-03-12T17:41:27.011Z,47.00
2019-03-12T17:44:00.640Z,47.18
2019-03-12T17:46:33.104Z,47.99
2019-03-12T17:49:04.506Z,48.11
2019-03-12T17:51:35.744Z,48.43
2019-03-12T17:54:08.191Z,48.61
2019-03-12T17:56:40.278Z,48.74
2019-03-12T17:59:14.478Z,49.38
2019-03-12T18:01:46.075Z,49.44
2019-03-12T18:04:17.504Z,50.48
2019-03-12T18:06:48.903Z,50.36
2019-03-12T18:09:20.308Z,50.32
2019-03-12T18:11:53.787Z,50.47
2019-03-12T18:14:24.738Z,50.78
2019-03-12T18:16:56.111Z,50.91
2019-03-12T18:19:27.454Z,51.59
2019-03-12T18:21:58.822Z,51.18
2019-03-12T18:24:30.242Z,51.58
2019-03-12T18:27:01.638Z,51.52
2019-03-12T18:29:32.962Z,51.39
2019-03-12T18:32:04.285Z,51.39
2019-03-12T18:34:35.598Z,51.37
2019-03-12T18:37:06.939Z,51.45
2019-03-12T18:39:38.401Z,51.83
2019-03-12T18:42:09.727Z,51.53
2019-03-12T18:44:41.257Z,52.21
2019-03-12T18:47:12.585Z,52.92
2019-03-12T18:49:43.934Z,51.23
2019-03-12T18:52:15.364Z,50.97
2019-03-12T18:54:46.528Z,52.48
2019-03-12T18:57:17.848Z,53.70
2019-03-12T18:59:49.548Z,53.44
2019-03-12T19:02:20.875Z,53.28
2019-03-12T19:04:52.295Z,52.25
2019-03-12T19:07:23.568Z,54.19
2019-03-12T19:09:54.909Z,54.12
2019-03-12T19:12:27.807Z,52.62
2019-03-12T19:14:59.553Z,53.47
2019-03-12T19:17:30.932Z,53.30
2019-03-12T19:20:02.274Z,53.71
2019-03-12T19:22:34.684Z,54.41
2019-03-12T19:25:09.132Z,54.57
2019-03-12T19:27:40.523Z,54.69
2019-03-12T19:30:16.633Z,54.73
2019-03-12T19:33:08.694Z,54.41
2019-03-12T19:35:40.041Z,54.98
2019-03-12T19:38:11.364Z,56.02
2019-03-12T19:40:44.192Z,55.78
2019-03-12T19:43:15.525Z,55.85
2019-03-12T19:45:46.846Z,55.82
2019-03-12T19:48:18.183Z,55.84
2019-03-12T19:50:49.509Z,55.46
2019-03-12T19:53:20.914Z,56.30
2019-03-12T19:55:58.181Z,56.57
2019-03-12T19:58:29.594Z,56.94
2019-03-12T20:01:01.118Z,56.33
2019-03-12T20:03:33.903Z,56.28
2019-03-12T20:06:05.225Z,56.61
2019-03-12T20:08:36.633Z,57.58
2019-03-12T20:11:35.427Z,57.18
2019-03-12T20:14:09.955Z,57.58
2019-03-12T20:17:09.139Z,57.59
2019-03-12T20:19:58.492Z,57.73
2019-03-12T20:22:55.592Z,57.75
2019-03-12T20:26:00.408Z,58.21
2019-03-12T20:29:04.800Z,58.82
2019-03-12T20:31:55.715Z,58.78
2019-03-12T20:35:01.480Z,58.65
2019-03-12T20:38:01.671Z,59.60
2019-03-12T20:40:54.991Z,58.96
2019-03-12T20:43:46.109Z,59.37
2019-03-12T20:46:23.266Z,59.86
2019-03-12T20:49:31.003Z,59.12
2019-03-12T20:52:29.771Z,59.63
2019-03-12T20:55:23.933Z,59.94
2019-03-12T20:58:10.449Z,59.62
2019-03-12T21:00:47.784Z,59.69
2019-03-12T21:03:37.037Z,58.72
2019-03-12T21:06:36.715Z,58.25
2019-03-12T21:09:40.527Z,58.15
2019-03-12T21:12:47.133Z,58.75
2019-03-12T21:15:37.944Z,59.04
2019-03-12T21:18:24.420Z,59.13
2019-03-12T21:21:32.216Z,58.98
2019-03-12T21:24:16.431Z,58.92
2019-03-12T21:26:56.584Z,59.46
2019-03-12T21:29:48.449Z,59.07
2019-03-12T21:32:19.763Z,58.87
2019-03-12T21:34:51.138Z,58.60
2019-03-12T21:37:22.486Z,58.29
2019-03-12T21:39:56.214Z,58.69
2019-03-12T21:42:26.907Z,58.23
2019-03-12T21:44:58.263Z,58.45
2019-03-12T21:47:29.619Z,58.58
2019-03-12T21:50:00.982Z,58.76
2019-03-12T21:52:32.314Z,58.52
2019-03-12T21:55:13.825Z,57.51
2019-03-12T21:57:45.221Z,56.68
2019-03-12T22:00:21.002Z,56.80
2019-03-12T22:02:52.341Z,57.08
2019-03-12T22:05:23.733Z,57.26
2019-03-12T22:07:55.139Z,56.55
2019-03-12T22:10:26.324Z,55.98
2019-03-12T22:12:57.728Z,56.41
2019-03-12T22:15:29.957Z,56.15
2019-03-12T22:18:01.572Z,56.51
2019-03-12T22:20:33.056Z,56.09
2019-03-12T22:23:12.071Z,56.20
2019-03-12T22:25:43.388Z,56.44
2019-03-12T22:28:14.734Z,56.45
2019-03-12T22:30:46.099Z,56.38
2019-03-12T22:33:17.348Z,55.97
2019-03-12T22:35:48.833Z,55.89
2019-03-12T22:38:20.160Z,56.29
2019-03-12T22:40:51.494Z,56.62
2019-03-12T22:43:22.837Z,57.21
2019-03-12T22:45:54.191Z,57.10
2019-03-12T22:48:27.080Z,57.27
2019-03-12T22:50:58.806Z,57.22
2019-03-12T22:53:30.229Z,57.08
2019-03-12T22:56:01.590Z,57.45
2019-03-12T22:58:34.028Z,56.79
2019-03-12T23:01:23.425Z,57.05
2019-03-12T23:04:12.942Z,55.78
2019-03-12T23:07:02.058Z,55.87
2019-03-12T23:09:50.024Z,55.56
2019-03-12T23:12:22.835Z,56.17
2019-03-12T23:14:55.567Z,56.24
2019-03-12T23:17:26.964Z,55.47
2019-03-12T23:19:58.313Z,55.40
2019-03-12T23:22:29.816Z,55.66
2019-03-12T23:25:01.206Z,55.47
2019-03-12T23:27:33.171Z,55.18
2019-03-12T23:30:16.047Z,55.57
2019-03-12T23:32:47.355Z,55.26
2019-03-12T23:35:19.601Z,54.44
2019-03-12T23:37:50.991Z,54.24
2019-03-12T23:40:23.493Z,54.32
2019-03-12T23:42:54.822Z,54.13
2019-03-12T23:45:26.127Z,54.25
2019-03-12T23:47:57.430Z,54.48
2019-03-12T23:50:28.680Z,54.38
2019-03-12T23:52:59.953Z,54.93
2019-03-12T23:55:31.345Z,55.05
2019-03-12T23:58:02.768Z,55.18
